Time;durP1;ratioP1;P1;durP2;ratioP2;P2;SDS_P1;SDS_P2;PMS_P1;PMS_P2;Temp;Humidity;BMP_temperature;BMP_pressure;BME280_temperature;BME280_humidity;BME280_pressure;Samples;Min_cycle;Max_cycle;Signal;HPM_P1;HPM_P2
2021/09/10 00:01:28;;;;;;;8.07;7.30;;;19.40;99.90;;;;;;5033134;28;20540;-69
2021/09/10 00:03:53;;;;;;;8.37;7.50;;;19.30;99.90;;;;;;5033081;28;20184;-69
2021/09/10 00:06:19;;;;;;;8.60;7.70;;;19.30;99.90;;;;;;5033685;28;20201;-69
2021/09/10 00:08:45;;;;;;;8.17;7.40;;;19.30;99.90;;;;;;5033624;28;20169;-70
2021/09/10 00:11:10;;;;;;;10.03;8.67;;;19.30;99.90;;;;;;5033777;28;20166;-69
2021/09/10 00:13:35;;;;;;;7.97;7.27;;;19.30;99.90;;;;;;5033664;28;20188;-69
2021/09/10 00:16:01;;;;;;;8.93;8.10;;;19.20;99.90;;;;;;5033164;28;20608;-69
2021/09/10 00:18:26;;;;;;;9.60;8.13;;;19.20;99.90;;;;;;5032880;28;20202;-70
2021/09/10 00:20:52;;;;;;;10.33;7.90;;;19.20;99.90;;;;;;5033033;28;20226;-70
2021/09/10 00:23:18;;;;;;;9.17;8.27;;;19.20;99.90;;;;;;5033035;28;20191;-69
2021/09/10 00:25:44;;;;;;;8.33;7.43;;;19.10;99.90;;;;;;5032794;28;20173;-69
2021/09/10 00:28:09;;;;;;;10.53;7.83;;;19.10;99.90;;;;;;5032881;28;20267;-69
2021/09/10 00:30:35;;;;;;;11.93;8.20;;;19.00;99.90;;;;;;5032705;28;20494;-70
2021/09/10 00:33:00;;;;;;;10.93;8.67;;;19.00;99.90;;;;;;5032936;28;20238;-69
2021/09/10 00:35:26;;;;;;;9.33;8.37;;;19.00;99.90;;;;;;5032397;28;20800;-70
2021/09/10 00:37:51;;;;;;;8.57;7.70;;;19.00;99.90;;;;;;5032445;28;20171;-69
2021/09/10 00:40:17;;;;;;;10.03;8.80;;;18.90;99.90;;;;;;5032579;28;20176;-69
2021/09/10 00:42:42;;;;;;;16.00;9.70;;;18.90;99.90;;;;;;5032452;28;20535;-69
2021/09/10 00:45:08;;;;;;;14.47;7.97;;;18.90;99.90;;;;;;5032690;28;20175;-69
2021/09/10 00:47:34;;;;;;;10.90;8.50;;;18.80;99.90;;;;;;5032280;28;20199;-69
2021/09/10 00:50:00;;;;;;;8.60;7.80;;;18.80;99.90;;;;;;5032432;28;20765;-68
2021/09/10 00:52:26;;;;;;;10.60;9.50;;;18.80;99.90;;;;;;5032210;28;20436;-69
2021/09/10 00:54:51;;;;;;;13.23;8.53;;;18.80;99.90;;;;;;4998275;28;994062;-69
2021/09/10 00:57:18;;;;;;;10.10;8.00;;;18.80;99.90;;;;;;5033362;28;20849;-68
2021/09/10 00:59:44;;;;;;;10.70;9.80;;;18.70;99.90;;;;;;5033334;28;20164;-68
2021/09/10 01:02:09;;;;;;;9.33;8.53;;;18.70;99.90;;;;;;5033359;28;20417;-68
2021/09/10 01:04:35;;;;;;;9.57;8.60;;;18.70;99.90;;;;;;5033327;28;20191;-69
2021/09/10 01:07:02;;;;;;;9.70;7.97;;;18.70;99.90;;;;;;5033071;28;20660;-68
2021/09/10 01:09:29;;;;;;;9.50;8.60;;;18.60;99.90;;;;;;5033002;28;20175;-69
2021/09/10 01:11:55;;;;;;;14.40;9.67;;;18.60;99.90;;;;;;5031742;28;20417;-69
2021/09/10 01:14:21;;;;;;;9.83;8.80;;;18.50;99.90;;;;;;5032907;28;20810;-68
2021/09/10 01:16:48;;;;;;;9.53;8.63;;;18.50;99.90;;;;;;5032883;28;20398;-68
2021/09/10 01:19:26;;;;;;;9.70;8.80;;;18.50;99.90;;;;;;5032983;28;20167;-68
2021/09/10 01:21:58;;;;;;;10.37;9.27;;;18.50;99.90;;;;;;5032968;28;20468;-68
2021/09/10 01:24:34;;;;;;;10.73;8.47;;;18.50;99.90;;;;;;5032909;28;20501;-68
2021/09/10 01:27:00;;;;;;;11.47;10.33;;;18.50;99.90;;;;;;5032677;28;20598;-68
2021/09/10 01:29:26;;;;;;;9.83;8.90;;;18.40;99.90;;;;;;5032685;28;20409;-67
2021/09/10 01:31:52;;;;;;;10.77;9.33;;;18.40;99.90;;;;;;5032995;28;20402;-68
2021/09/10 01:34:19;;;;;;;8.80;7.90;;;18.40;99.90;;;;;;5032654;28;20452;-68
2021/09/10 01:36:44;;;;;;;11.23;9.47;;;18.40;99.90;;;;;;5032608;28;20181;-67
2021/09/10 01:39:10;;;;;;;10.40;8.80;;;18.30;99.90;;;;;;5032550;28;20513;-68
2021/09/10 01:41:35;;;;;;;10.37;9.47;;;18.30;99.90;;;;;;5032464;28;20178;-68
2021/09/10 01:44:01;;;;;;;10.20;8.40;;;18.30;99.90;;;;;;5032444;28;20697;-67
2021/09/10 01:46:26;;;;;;;12.90;9.10;;;18.30;99.90;;;;;;5032101;28;20200;-68
2021/09/10 01:48:52;;;;;;;10.17;8.73;;;18.20;99.90;;;;;;5032349;28;20171;-68
2021/09/10 01:51:17;;;;;;;9.83;8.97;;;18.20;99.90;;;;;;5032418;28;20623;-69
2021/09/10 01:53:43;;;;;;;10.50;8.77;;;18.20;99.90;;;;;;5032197;28;20667;-68
2021/09/10 01:56:09;;;;;;;13.07;10.20;;;18.30;99.90;;;;;;5032345;28;20674;-68
2021/09/10 01:58:34;;;;;;;9.50;8.50;;;18.20;99.90;;;;;;5032072;28;20421;-69
2021/09/10 02:01:01;;;;;;;10.37;9.37;;;18.20;99.90;;;;;;5032251;28;20225;-68
2021/09/10 02:03:28;;;;;;;10.13;9.10;;;18.20;99.90;;;;;;5032336;28;20182;-68
2021/09/10 02:05:54;;;;;;;10.70;9.70;;;18.20;99.90;;;;;;5032189;28;20449;-68
2021/09/10 02:08:19;;;;;;;12.70;11.40;;;18.20;99.90;;;;;;5032099;28;20832;-68
2021/09/10 02:10:44;;;;;;;13.07;10.90;;;18.20;99.90;;;;;;5032725;28;20157;-68
2021/09/10 02:13:10;;;;;;;9.93;9.00;;;18.10;99.90;;;;;;5032068;28;20262;-68
2021/09/10 02:15:37;;;;;;;10.70;9.50;;;18.10;99.90;;;;;;5032643;28;20165;-68
2021/09/10 02:18:02;;;;;;;11.00;9.87;;;18.10;99.90;;;;;;5032245;28;20173;-68
2021/09/10 02:20:28;;;;;;;13.40;9.73;;;18.10;99.90;;;;;;5032336;28;20413;-68
2021/09/10 02:22:53;;;;;;;11.07;9.53;;;18.10;99.90;;;;;;5031731;28;20594;-68
2021/09/10 02:25:19;;;;;;;12.80;8.70;;;18.10;99.90;;;;;;5031672;28;20265;-67
2021/09/10 02:27:44;;;;;;;11.10;9.43;;;18.00;99.90;;;;;;5031597;28;20563;-68
2021/09/10 02:30:10;;;;;;;10.83;9.83;;;18.10;99.90;;;;;;5031770;28;20175;-68
2021/09/10 02:32:35;;;;;;;11.57;10.20;;;18.00;99.90;;;;;;5031522;28;20175;-68
2021/09/10 02:35:01;;;;;;;10.20;9.30;;;18.00;99.90;;;;;;5031579;28;20177;-68
2021/09/10 02:37:26;;;;;;;15.80;10.60;;;17.90;99.90;;;;;;5031936;28;20179;-69
2021/09/10 02:39:52;;;;;;;10.60;9.70;;;17.90;99.90;;;;;;5014553;28;20219;-69
2021/09/10 02:42:18;;;;;;;10.90;9.53;;;17.90;99.90;;;;;;5032202;28;20182;-69
2021/09/10 02:44:43;;;;;;;10.83;9.73;;;17.90;99.90;;;;;;5032069;28;20610;-69
2021/09/10 02:47:09;;;;;;;11.13;10.13;;;17.90;99.90;;;;;;5031722;28;20209;-69
2021/09/10 02:49:34;;;;;;;11.50;9.50;;;17.90;99.90;;;;;;5031823;28;20542;-68
2021/09/10 02:52:00;;;;;;;12.20;10.70;;;17.90;99.90;;;;;;5031388;28;20182;-68
2021/09/10 02:54:25;;;;;;;10.70;9.70;;;17.90;99.90;;;;;;5031160;28;20228;-68
2021/09/10 02:56:50;;;;;;;12.90;9.77;;;17.90;99.90;;;;;;5031091;28;20171;-68
2021/09/10 02:59:16;;;;;;;12.00;10.70;;;17.80;99.90;;;;;;5031284;28;20202;-68
2021/09/10 03:01:44;;;;;;;10.77;9.67;;;17.80;99.90;;;;;;5031491;28;20175;-68
2021/09/10 03:04:11;;;;;;;11.60;10.23;;;17.80;99.90;;;;;;5031348;28;20198;-69
2021/09/10 03:06:36;;;;;;;11.23;10.23;;;17.70;99.90;;;;;;5031187;28;20464;-69
2021/09/10 03:09:02;;;;;;;10.53;9.63;;;17.70;99.90;;;;;;5013383;28;20928;-68
2021/09/10 03:11:28;;;;;;;12.80;10.93;;;17.70;99.90;;;;;;5031022;28;20253;-68
2021/09/10 03:13:54;;;;;;;10.60;9.60;;;17.70;99.90;;;;;;5031235;28;20193;-68
2021/09/10 03:16:19;;;;;;;12.23;10.93;;;17.70;99.90;;;;;;5031114;28;20416;-69
2021/09/10 03:18:45;;;;;;;11.30;10.10;;;17.70;99.90;;;;;;5031339;28;20185;-68
2021/09/10 03:21:10;;;;;;;12.27;11.07;;;17.60;99.90;;;;;;5031075;28;20171;-68
2021/09/10 03:23:36;;;;;;;12.53;11.37;;;17.60;99.90;;;;;;5030915;28;20257;-68
2021/09/10 03:26:01;;;;;;;12.63;11.40;;;17.60;99.90;;;;;;5030952;28;20211;-68
2021/09/10 03:28:27;;;;;;;12.13;11.13;;;17.60;99.90;;;;;;5013176;28;20178;-68
2021/09/10 03:30:52;;;;;;;12.20;10.97;;;17.60;99.90;;;;;;5031055;28;20212;-70
2021/09/10 03:33:18;;;;;;;15.20;12.00;;;17.50;99.90;;;;;;5030959;28;20269;-69
2021/09/10 03:35:44;;;;;;;13.03;11.67;;;17.50;99.90;;;;;;5030925;28;20638;-69
2021/09/10 03:38:09;;;;;;;12.93;11.03;;;17.60;99.90;;;;;;5030843;28;20420;-69
2021/09/10 03:40:35;;;;;;;12.53;11.33;;;17.50;99.90;;;;;;5030780;28;20173;-69
2021/09/10 03:43:03;;;;;;;13.57;12.20;;;17.50;99.90;;;;;;5031070;28;20282;-69
2021/09/10 03:45:29;;;;;;;11.10;10.00;;;17.50;99.90;;;;;;5030849;28;20177;-69
2021/09/10 03:47:54;;;;;;;12.20;11.03;;;17.50;99.90;;;;;;5030765;28;20468;-67
2021/09/10 03:50:20;;;;;;;13.03;11.93;;;17.50;99.90;;;;;;5030871;28;20185;-67
2021/09/10 03:52:45;;;;;;;11.60;10.60;;;17.50;99.90;;;;;;5031180;28;20193;-67
2021/09/10 03:55:14;;;;;;;11.47;10.47;;;17.40;99.90;;;;;;5030596;28;20205;-67
2021/09/10 03:57:39;;;;;;;11.57;10.53;;;17.40;99.90;;;;;;5030808;28;20173;-67
2021/09/10 04:00:05;;;;;;;12.07;10.80;;;17.40;99.90;;;;;;5030696;28;20786;-67
2021/09/10 04:02:31;;;;;;;13.03;11.60;;;17.40;99.90;;;;;;5030663;28;20185;-67
2021/09/10 04:04:56;;;;;;;12.07;10.87;;;17.40;99.90;;;;;;5030974;28;20434;-67
2021/09/10 04:07:22;;;;;;;12.13;10.90;;;17.40;99.90;;;;;;5030749;28;20191;-67
2021/09/10 04:09:47;;;;;;;12.70;11.40;;;17.30;99.90;;;;;;5031352;28;20261;-68
2021/09/10 04:12:13;;;;;;;16.67;12.43;;;17.40;99.90;;;;;;5034250;28;20663;-68
2021/09/10 04:14:38;;;;;;;12.90;11.63;;;17.40;99.90;;;;;;5034219;28;20187;-68
2021/09/10 04:17:03;;;;;;;14.30;11.80;;;17.30;99.90;;;;;;5034087;28;20172;-68
2021/09/10 04:19:29;;;;;;;13.83;12.43;;;17.30;99.90;;;;;;5034177;28;20214;-68
2021/09/10 04:21:54;;;;;;;14.90;12.50;;;17.20;99.90;;;;;;5033983;28;20181;-68
2021/09/10 04:24:20;;;;;;;13.07;11.80;;;17.20;99.90;;;;;;5034010;28;20898;-68
2021/09/10 04:26:45;;;;;;;14.03;12.23;;;17.20;99.90;;;;;;5034000;28;20197;-68
2021/09/10 04:29:11;;;;;;;13.37;12.07;;;17.30;99.90;;;;;;5033987;28;20166;-68
2021/09/10 04:31:36;;;;;;;14.00;12.17;;;17.30;99.90;;;;;;5033837;28;20524;-68
2021/09/10 04:34:02;;;;;;;12.87;11.73;;;17.30;99.90;;;;;;5033758;28;20551;-68
2021/09/10 04:36:27;;;;;;;14.90;13.03;;;17.30;99.90;;;;;;5034121;28;20260;-68
2021/09/10 04:38:53;;;;;;;13.10;11.77;;;17.30;99.90;;;;;;5033906;28;20652;-68
2021/09/10 04:41:18;;;;;;;16.17;13.57;;;17.30;99.90;;;;;;5033852;28;20307;-69
2021/09/10 04:43:44;;;;;;;13.63;12.33;;;17.30;99.90;;;;;;5033899;28;20641;-69
2021/09/10 04:46:09;;;;;;;13.33;11.70;;;17.30;99.90;;;;;;5033697;28;20193;-68
2021/09/10 04:48:35;;;;;;;13.57;11.43;;;17.30;99.90;;;;;;5033443;28;20209;-68
2021/09/10 04:51:00;;;;;;;13.60;11.80;;;17.30;99.90;;;;;;5034224;28;20162;-68
2021/09/10 04:53:25;;;;;;;12.13;10.37;;;17.30;99.90;;;;;;5033699;28;20187;-69
2021/09/10 04:55:51;;;;;;;13.77;12.00;;;17.30;99.90;;;;;;5033898;28;20206;-70
2021/09/10 04:58:17;;;;;;;14.73;11.93;;;17.30;99.90;;;;;;5033907;28;20224;-70
2021/09/10 05:00:43;;;;;;;13.40;12.10;;;17.40;99.90;;;;;;5033583;28;20195;-71
2021/09/10 05:03:08;;;;;;;14.07;12.67;;;17.40;99.90;;;;;;5033417;28;20468;-70
2021/09/10 05:05:34;;;;;;;15.33;12.17;;;17.40;99.90;;;;;;5033689;28;20178;-70
2021/09/10 05:07:59;;;;;;;14.20;12.30;;;17.50;99.90;;;;;;5033129;28;20625;-69
2021/09/10 05:10:24;;;;;;;14.13;12.40;;;17.50;99.90;;;;;;5033580;28;20196;-68
2021/09/10 05:12:50;;;;;;;14.70;12.90;;;17.50;99.90;;;;;;5033259;28;20174;-70
2021/09/10 05:15:15;;;;;;;13.70;12.50;;;17.50;99.90;;;;;;5033399;28;20206;-70
2021/09/10 05:17:41;;;;;;;13.43;12.03;;;17.60;99.90;;;;;;5033089;28;20164;-68
2021/09/10 05:20:08;;;;;;;16.50;12.83;;;17.60;99.90;;;;;;5033396;28;20577;-69
2021/09/10 05:22:33;;;;;;;14.40;12.63;;;17.60;99.90;;;;;;5014209;28;20201;-69
2021/09/10 05:24:59;;;;;;;17.00;13.00;;;17.70;99.90;;;;;;5033427;28;20508;-68
2021/09/10 05:27:24;;;;;;;14.23;12.73;;;17.80;99.90;;;;;;5033321;28;20260;-70
2021/09/10 05:29:50;;;;;;;12.20;11.00;;;17.80;99.90;;;;;;5033096;28;20293;-70
2021/09/10 05:32:15;;;;;;;13.53;12.33;;;17.80;99.90;;;;;;5033249;28;20177;-69
2021/09/10 05:34:41;;;;;;;13.97;12.47;;;17.90;99.90;;;;;;5033045;28;20241;-70
2021/09/10 05:37:06;;;;;;;13.30;12.20;;;17.90;99.90;;;;;;5033353;28;20181;-69
2021/09/10 05:39:32;;;;;;;14.80;13.40;;;18.00;99.90;;;;;;5033417;28;20635;-70
2021/09/10 05:41:57;;;;;;;18.60;12.40;;;18.10;99.90;;;;;;5032957;28;20547;-70
2021/09/10 05:44:22;;;;;;;18.60;12.30;;;18.20;99.90;;;;;;5033098;28;20227;-70
2021/09/10 05:46:48;;;;;;;14.13;12.63;;;18.40;99.90;;;;;;5032629;28;20195;-67
2021/09/10 05:49:13;;;;;;;13.20;12.00;;;18.70;99.90;;;;;;5033151;28;20169;-70
2021/09/10 05:51:39;;;;;;;15.07;11.97;;;18.90;99.90;;;;;;5032756;28;20170;-70
2021/09/10 05:54:05;;;;;;;11.63;10.63;;;19.30;99.90;;;;;;5032711;28;20543;-70
2021/09/10 05:56:30;;;;;;;12.33;10.90;;;19.70;99.90;;;;;;5032972;28;20224;-70
2021/09/10 05:58:56;;;;;;;13.43;11.50;;;19.90;99.90;;;;;;5032655;28;20870;-69
2021/09/10 06:01:21;;;;;;;11.63;10.07;;;20.20;99.90;;;;;;5032389;28;20174;-71
2021/09/10 06:03:47;;;;;;;12.50;11.00;;;20.80;99.90;;;;;;5032154;28;20197;-68
2021/09/10 06:06:12;;;;;;;14.40;11.50;;;20.90;99.90;;;;;;5031971;28;20235;-69
2021/09/10 06:08:38;;;;;;;12.90;11.50;;;21.00;99.90;;;;;;5032154;28;20544;-67
2021/09/10 06:11:04;;;;;;;13.17;10.40;;;21.00;99.90;;;;;;5032053;28;20174;-68
2021/09/10 06:13:30;;;;;;;21.37;11.00;;;21.40;99.90;;;;;;5031889;28;20369;-68
2021/09/10 06:15:55;;;;;;;12.30;10.40;;;21.70;99.90;;;;;;5031960;28;20484;-68
2021/09/10 06:18:21;;;;;;;11.10;9.90;;;21.90;99.90;;;;;;5031852;28;20672;-68
2021/09/10 06:20:46;;;;;;;11.93;10.67;;;22.10;99.90;;;;;;5031798;28;20300;-67
2021/09/10 06:23:12;;;;;;;12.50;11.40;;;22.50;99.90;;;;;;5031581;28;20194;-68
2021/09/10 06:25:37;;;;;;;11.73;10.63;;;22.60;99.90;;;;;;5032017;28;20167;-69
2021/09/10 06:28:03;;;;;;;11.97;10.77;;;22.60;99.90;;;;;;5031892;28;20284;-69
2021/09/10 06:30:28;;;;;;;11.27;10.17;;;22.80;99.90;;;;;;5031821;28;20554;-68
2021/09/10 06:32:54;;;;;;;12.23;10.93;;;23.30;99.90;;;;;;5031122;28;20170;-68
2021/09/10 06:35:19;;;;;;;12.60;10.97;;;23.60;99.90;;;;;;5031516;28;20170;-68
2021/09/10 06:37:45;;;;;;;12.57;11.27;;;23.90;99.90;;;;;;5031376;28;20182;-68
2021/09/10 06:40:12;;;;;;;12.87;10.77;;;23.90;99.90;;;;;;5032046;28;20177;-68
2021/09/10 06:42:37;;;;;;;12.00;10.67;;;24.70;99.90;;;;;;5031359;28;20606;-67
2021/09/10 06:45:03;;;;;;;12.10;10.90;;;24.70;99.90;;;;;;5031521;28;20434;-67
2021/09/10 06:47:29;;;;;;;10.63;9.50;;;24.00;99.90;;;;;;5031337;28;20214;-68
2021/09/10 06:49:55;;;;;;;10.90;9.93;;;23.80;99.90;;;;;;5031491;28;20168;-67
2021/09/10 06:52:21;;;;;;;11.93;10.83;;;24.80;99.90;;;;;;5031422;28;20514;-68
2021/09/10 06:54:47;;;;;;;11.87;10.67;;;24.60;99.90;;;;;;5031229;28;20441;-68
2021/09/10 06:57:12;;;;;;;11.73;10.53;;;24.70;99.90;;;;;;5031620;28;20464;-68
2021/09/10 06:59:38;;;;;;;11.97;9.90;;;25.10;99.90;;;;;;5031479;28;20167;-69
2021/09/10 07:02:03;;;;;;;14.70;9.83;;;25.10;99.90;;;;;;5031418;28;20183;-68
2021/09/10 07:04:29;;;;;;;10.53;9.63;;;25.20;99.90;;;;;;5031832;28;20298;-68
2021/09/10 07:06:54;;;;;;;10.83;9.87;;;25.70;99.90;;;;;;5031049;28;20231;-68
2021/09/10 07:09:20;;;;;;;11.27;10.10;;;25.10;99.90;;;;;;5031505;28;20250;-68
2021/09/10 07:11:45;;;;;;;11.43;10.10;;;25.10;99.90;;;;;;5031316;28;20171;-67
2021/09/10 07:14:11;;;;;;;10.00;9.03;;;25.60;99.90;;;;;;5031424;28;20318;-68
2021/09/10 07:16:36;;;;;;;12.80;10.37;;;25.80;99.90;;;;;;5031077;28;20535;-69
2021/09/10 07:19:01;;;;;;;10.37;9.40;;;25.60;99.90;;;;;;5030906;28;20455;-69
2021/09/10 07:21:27;;;;;;;10.80;9.80;;;26.00;99.90;;;;;;5031062;28;20170;-68
2021/09/10 07:23:52;;;;;;;10.83;9.40;;;26.00;99.90;;;;;;5030996;28;20214;-70
2021/09/10 07:26:18;;;;;;;11.93;10.00;;;25.50;99.90;;;;;;5031036;28;20650;-70
2021/09/10 07:28:43;;;;;;;11.33;10.17;;;25.90;99.90;;;;;;5030849;28;20167;-70
2021/09/10 07:31:09;;;;;;;14.07;10.00;;;25.80;99.90;;;;;;5030894;28;20226;-70
2021/09/10 07:33:37;;;;;;;9.63;8.73;;;26.40;99.90;;;;;;5030909;28;20232;-70
2021/09/10 07:36:06;;;;;;;10.90;9.80;;;26.20;99.90;;;;;;5030885;28;20176;-70
2021/09/10 07:38:32;;;;;;;9.60;8.80;;;25.80;99.90;;;;;;5030743;28;20406;-70
2021/09/10 07:40:57;;;;;;;10.13;9.23;;;26.00;99.90;;;;;;5030780;28;20410;-70
2021/09/10 07:43:23;;;;;;;9.63;8.70;;;26.60;99.90;;;;;;5030746;28;20784;-70
2021/09/10 07:45:48;;;;;;;9.17;8.20;;;25.80;99.90;;;;;;5033126;28;20164;-70
2021/09/10 07:48:14;;;;;;;9.90;9.00;;;26.40;99.90;;;;;;5016791;28;20163;-70
2021/09/10 07:50:39;;;;;;;8.70;7.90;;;26.10;99.90;;;;;;5034639;28;20650;-70
2021/09/10 07:53:05;;;;;;;9.33;8.17;;;26.60;99.90;;;;;;5016853;28;20553;-70
2021/09/10 07:55:30;;;;;;;8.50;7.70;;;27.10;99.90;;;;;;5034679;28;20183;-70
2021/09/10 07:57:56;;;;;;;8.90;7.70;;;27.30;99.90;;;;;;5034683;28;20178;-70
2021/09/10 08:00:22;;;;;;;8.97;8.17;;;27.10;99.90;;;;;;5034765;28;20203;-70
2021/09/10 08:02:48;;;;;;;10.20;8.03;;;26.80;99.90;;;;;;5034253;28;20171;-70
2021/09/10 08:05:15;;;;;;;8.63;7.90;;;26.90;99.90;;;;;;5034283;28;20182;-70
2021/09/10 08:07:41;;;;;;;9.30;8.30;;;27.70;99.90;;;;;;5034262;28;20961;-70
2021/09/10 08:10:11;;;;;;;7.50;6.80;;;27.70;99.90;;;;;;5034361;28;20416;-70
2021/09/10 08:12:37;;;;;;;11.43;8.63;;;27.60;99.90;;;;;;5034170;28;20246;-70
2021/09/10 08:15:02;;;;;;;8.57;7.70;;;28.80;99.90;;;;;;5034175;28;20488;-70
2021/09/10 08:17:28;;;;;;;8.20;7.40;;;27.80;99.90;;;;;;5034161;28;20171;-70
2021/09/10 08:19:53;;;;;;;9.77;7.50;;;28.20;99.90;;;;;;5034182;28;20167;-70
2021/09/10 08:22:19;;;;;;;9.70;6.93;;;28.00;99.90;;;;;;5034116;28;20171;-68
2021/09/10 08:24:47;;;;;;;7.30;6.60;;;27.40;99.90;;;;;;5034152;28;20274;-71
2021/09/10 08:27:12;;;;;;;8.00;7.20;;;27.20;99.90;;;;;;5034231;28;20633;-70
2021/09/10 08:29:38;;;;;;;7.50;6.47;;;27.00;99.90;;;;;;5034006;28;20442;-70
2021/09/10 08:32:04;;;;;;;6.33;5.77;;;28.30;99.90;;;;;;5033878;28;20172;-70
2021/09/10 08:34:29;;;;;;;6.97;6.27;;;28.00;99.90;;;;;;5016326;28;20662;-70
2021/09/10 08:36:55;;;;;;;9.10;5.00;;;27.30;99.90;;;;;;5033885;28;20168;-68
2021/09/10 08:39:20;;;;;;;5.57;5.10;;;27.30;99.90;;;;;;5033903;28;20182;-70
2021/09/10 08:41:46;;;;;;;5.57;5.17;;;27.70;99.90;;;;;;5033855;28;20211;-70
2021/09/10 08:44:12;;;;;;;5.07;4.67;;;28.10;99.90;;;;;;5034052;28;20194;-70
2021/09/10 08:46:40;;;;;;;6.03;5.47;;;28.10;99.90;;;;;;5033979;28;20549;-70
2021/09/10 08:49:07;;;;;;;5.10;4.70;;;27.60;99.90;;;;;;5015964;28;20414;-70
2021/09/10 08:51:32;;;;;;;8.70;4.90;;;27.40;99.90;;;;;;5033799;28;20437;-70
2021/09/10 08:53:58;;;;;;;5.60;5.00;;;28.30;99.90;;;;;;5033672;28;20890;-70
2021/09/10 08:56:23;;;;;;;5.00;4.60;;;28.90;99.90;;;;;;5033642;28;20175;-70
2021/09/10 08:58:49;;;;;;;5.70;5.20;;;27.50;99.90;;;;;;5034045;28;20214;-70
2021/09/10 09:01:14;;;;;;;5.73;5.13;;;28.40;99.90;;;;;;5033867;28;20160;-70
2021/09/10 09:03:40;;;;;;;5.30;4.80;;;28.10;99.90;;;;;;5033622;28;20662;-70
2021/09/10 09:06:05;;;;;;;6.07;5.57;;;28.80;99.90;;;;;;5033857;28;20546;-70
2021/09/10 09:08:31;;;;;;;6.07;5.57;;;28.60;99.90;;;;;;5034015;28;20172;-71
2021/09/10 09:11:03;;;;;;;5.30;4.80;;;28.60;99.90;;;;;;5033668;28;20635;-71
2021/09/10 09:13:37;;;;;;;5.00;4.60;;;28.30;99.90;;;;;;5033827;28;20192;-71
2021/09/10 09:16:18;;;;;;;8.77;5.40;;;28.80;99.90;;;;;;5033622;28;20406;-70
2021/09/10 09:18:50;;;;;;;6.67;6.10;;;28.20;99.90;;;;;;5033311;28;20402;-70
2021/09/10 09:21:34;;;;;;;7.07;6.40;;;27.90;99.90;;;;;;5033224;28;20464;-71
2021/09/10 09:24:18;;;;;;;6.43;5.43;;;27.70;99.90;;;;;;5033584;28;20484;-70
2021/09/10 09:26:46;;;;;;;7.33;6.63;;;28.10;99.90;;;;;;5033519;28;20454;-71
2021/09/10 09:29:13;;;;;;;6.67;6.07;;;28.40;99.90;;;;;;5033334;28;20448;-69
2021/09/10 09:31:40;;;;;;;6.03;5.53;;;27.80;99.90;;;;;;5033435;28;20473;-71
2021/09/10 09:34:07;;;;;;;7.27;5.93;;;28.20;99.90;;;;;;5033058;28;20450;-70
2021/09/10 09:36:34;;;;;;;6.73;6.13;;;27.80;99.90;;;;;;5015262;28;20410;-70
2021/09/10 09:39:08;;;;;;;6.90;6.40;;;27.90;99.90;;;;;;5032704;28;20497;-70
2021/09/10 09:41:42;;;;;;;6.00;5.40;;;28.00;99.90;;;;;;5033099;28;20413;-70
2021/09/10 09:44:14;;;;;;;5.97;5.47;;;28.00;99.90;;;;;;5032738;28;20937;-70
2021/09/10 09:46:46;;;;;;;6.10;5.40;;;28.30;99.90;;;;;;5032784;28;20456;-70
2021/09/10 09:49:13;;;;;;;6.37;5.83;;;28.30;99.90;;;;;;5032662;28;20410;-68
2021/09/10 09:52:00;;;;;;;5.50;5.10;;;27.80;99.90;;;;;;5015254;28;20691;-69
2021/09/10 09:54:26;;;;;;;6.23;5.63;;;28.00;99.90;;;;;;5032355;28;20441;-69
2021/09/10 09:56:53;;;;;;;6.43;5.93;;;27.90;99.90;;;;;;5032287;28;20502;-69
2021/09/10 09:59:19;;;;;;;6.10;5.40;;;28.00;99.90;;;;;;5032403;28;20937;-71
2021/09/10 10:01:44;;;;;;;6.53;5.83;;;27.40;99.90;;;;;;5032309;28;20410;-71
2021/09/10 10:04:10;;;;;;;6.53;5.90;;;27.10;99.90;;;;;;5032501;28;20191;-70
2021/09/10 10:06:38;;;;;;;6.87;6.20;;;27.40;99.90;;;;;;5032228;28;20233;-70
2021/09/10 10:09:20;;;;;;;9.83;6.57;;;27.70;99.90;;;;;;5031546;28;20175;-70
2021/09/10 10:11:49;;;;;;;8.53;6.53;;;27.00;99.90;;;;;;5014483;28;21015;-70
2021/09/10 10:14:29;;;;;;;6.90;6.20;;;26.70;99.90;;;;;;5031998;28;20426;-70
2021/09/10 10:16:54;;;;;;;10.87;6.67;;;27.00;99.90;;;;;;5014331;28;20421;-70
2021/09/10 10:19:20;;;;;;;7.77;7.07;;;27.20;99.90;;;;;;5032183;28;20412;-70
2021/09/10 10:22:03;;;;;;;5.90;5.40;;;26.90;99.90;;;;;;5032183;28;20253;-70
2021/09/10 10:24:43;;;;;;;6.73;6.03;;;26.80;99.90;;;;;;5031962;28;20254;-70
2021/09/10 10:27:39;;;;;;;6.37;5.87;;;27.10;99.90;;;;;;4994491;28;20453;-70
2021/09/10 10:30:14;;;;;;;6.63;5.47;;;27.40;99.90;;;;;;5012496;28;20411;-70
2021/09/10 10:32:41;;;;;;;6.10;5.50;;;27.20;99.90;;;;;;5012329;28;20505;-70
2021/09/10 10:35:26;;;;;;;5.97;5.37;;;27.00;99.90;;;;;;5011162;28;20414;-70
2021/09/10 10:38:08;;;;;;;6.97;5.57;;;26.90;99.90;;;;;;5012061;28;20497;-70
2021/09/10 10:40:42;;;;;;;5.53;5.00;;;27.00;99.90;;;;;;4994916;28;20805;-70
2021/09/10 10:43:21;;;;;;;5.27;4.77;;;26.80;99.90;;;;;;4994288;28;20469;-70
2021/09/10 10:45:47;;;;;;;5.30;4.90;;;27.00;99.90;;;;;;5012134;28;20402;-70
2021/09/10 10:48:32;;;;;;;6.10;5.60;;;27.00;99.90;;;;;;5011611;28;20457;-70
2021/09/10 10:51:01;;;;;;;5.63;5.10;;;27.10;99.90;;;;;;5011916;28;20527;-70
2021/09/10 10:53:26;;;;;;;7.00;6.30;;;27.20;99.90;;;;;;5011739;28;20437;-70
2021/09/10 10:55:52;;;;;;;6.60;6.00;;;26.80;99.90;;;;;;5011567;28;20483;-68
2021/09/10 10:58:23;;;;;;;9.80;6.13;;;27.10;99.90;;;;;;5011798;28;20583;-68
2021/09/10 11:01:04;;;;;;;7.00;6.30;;;27.10;99.90;;;;;;5011681;28;20190;-67
2021/09/10 11:03:34;;;;;;;5.73;5.10;;;27.60;99.90;;;;;;5011528;28;20441;-69
2021/09/10 11:06:24;;;;;;;7.07;5.27;;;27.60;99.90;;;;;;5011422;28;20506;-69
2021/09/10 11:08:50;;;;;;;5.97;5.47;;;27.20;99.90;;;;;;5011620;28;20410;-68
2021/09/10 11:11:18;;;;;;;6.23;5.70;;;27.10;99.90;;;;;;5011675;28;20416;-69
2021/09/10 11:13:45;;;;;;;5.57;5.07;;;27.00;99.90;;;;;;5011315;28;20700;-70
2021/09/10 11:16:26;;;;;;;6.30;5.70;;;27.00;99.90;;;;;;5011411;28;20401;-68
2021/09/10 11:18:51;;;;;;;6.00;5.13;;;27.30;99.90;;;;;;5012590;28;20801;-68
2021/09/10 11:21:16;;;;;;;6.70;4.83;;;27.30;99.90;;;;;;5015629;28;20489;-68
2021/09/10 11:23:43;;;;;;;6.33;5.73;;;27.20;99.90;;;;;;5015490;28;20267;-69
2021/09/10 11:26:09;;;;;;;6.53;5.93;;;27.20;99.90;;;;;;5016509;28;20175;-69
2021/09/10 11:28:37;;;;;;;6.40;5.90;;;27.30;99.90;;;;;;5015230;28;20412;-69
2021/09/10 11:31:25;;;;;;;6.70;6.03;;;27.40;99.90;;;;;;5015408;28;20860;-67
2021/09/10 11:33:51;;;;;;;6.80;6.20;;;27.40;99.90;;;;;;5015583;28;20490;-69
2021/09/10 11:36:26;;;;;;;6.50;5.90;;;27.50;99.90;;;;;;5015520;28;20742;-69
2021/09/10 11:39:03;;;;;;;6.13;5.63;;;27.50;99.90;;;;;;5015226;28;20737;-68
2021/09/10 11:41:30;;;;;;;7.00;5.50;;;27.50;99.90;;;;;;5015253;28;20409;-69
2021/09/10 11:44:05;;;;;;;6.73;6.13;;;27.40;99.90;;;;;;5015178;28;20521;-68
2021/09/10 11:46:31;;;;;;;7.50;5.63;;;27.50;99.90;;;;;;5015471;28;20465;-69
2021/09/10 11:48:59;;;;;;;6.03;5.43;;;27.60;99.90;;;;;;5015476;28;20439;-69
2021/09/10 11:51:43;;;;;;;6.20;5.60;;;27.50;99.90;;;;;;5015702;28;20181;-69
2021/09/10 11:54:16;;;;;;;5.67;5.27;;;27.90;99.90;;;;;;5015085;28;20474;-68
2021/09/10 11:57:17;;;;;;;6.73;5.03;;;28.10;99.90;;;;;;5015103;28;20412;-68
2021/09/10 11:59:48;;;;;;;6.43;5.70;;;28.10;99.90;;;;;;5013493;28;20421;-68
2021/09/10 12:02:18;;;;;;;6.47;5.80;;;28.10;99.90;;;;;;5014896;28;20785;-68
2021/09/10 12:04:57;;;;;;;6.70;6.10;;;28.00;99.90;;;;;;5014817;28;20442;-68
2021/09/10 12:07:28;;;;;;;6.27;5.67;;;27.80;99.90;;;;;;5014725;28;20469;-70
2021/09/10 12:09:53;;;;;;;7.50;6.80;;;28.10;99.90;;;;;;5013472;28;20510;-68
2021/09/10 12:12:21;;;;;;;6.23;5.73;;;27.80;99.90;;;;;;5014949;28;20877;-69
2021/09/10 12:14:53;;;;;;;8.13;6.60;;;28.00;99.90;;;;;;5014317;28;20550;-71
2021/09/10 12:17:25;;;;;;;6.30;5.70;;;28.00;99.90;;;;;;5014332;28;21032;-69
2021/09/10 12:19:54;;;;;;;5.50;5.10;;;27.90;99.90;;;;;;5014488;28;20413;-69
2021/09/10 12:22:37;;;;;;;6.43;5.83;;;28.30;99.90;;;;;;5014323;28;20414;-69
2021/09/10 12:25:27;;;;;;;6.40;5.83;;;28.40;99.90;;;;;;5014314;28;20940;-66
2021/09/10 12:28:02;;;;;;;6.50;6.00;;;28.50;99.90;;;;;;5014476;28;20512;-67
2021/09/10 12:30:30;;;;;;;6.47;5.87;;;28.10;99.90;;;;;;5013943;28;20402;-69
2021/09/10 12:32:56;;;;;;;7.17;6.57;;;28.20;99.90;;;;;;5014767;28;20960;-68
2021/09/10 12:35:23;;;;;;;8.80;6.67;;;27.90;99.90;;;;;;5012831;28;20506;-69
2021/09/10 12:37:59;;;;;;;7.07;6.47;;;27.70;99.90;;;;;;5014010;28;20317;-68
2021/09/10 12:40:26;;;;;;;6.97;6.47;;;27.60;99.90;;;;;;5014026;28;20438;-68